Time;durP1;ratioP1;P1;durP2;ratioP2;P2;SDS_P1;SDS_P2;PMS_P1;PMS_P2;Temp;Humidity;BMP_temperature;BMP_pressure;BME280_temperature;BME280_humidity;BME280_pressure;Samples;Min_cycle;Max_cycle;Signal;HPM_P1;HPM_P2
2023/08/06 02:51:41;;;;;;;1999.90;999.90;;;;;;;;;;6008321;23;21035;-74
2023/08/06 02:54:25;;;;;;;1999.90;999.90;;;;;;;;;;4992355;28;20215;-75
2023/08/06 02:57:10;;;;;;;1999.90;999.90;;;;;;;;;;4985952;28;20414;-75
2023/08/06 02:59:55;;;;;;;1999.90;999.90;;;;;;;;;;4993479;28;20213;-76
2023/08/06 03:02:40;;;;;;;1999.90;999.90;;;;;;;;;;4994678;28;20589;-77
2023/08/06 03:05:25;;;;;;;1999.90;999.90;;;;;;;;;;4993273;28;20629;-77
2023/08/06 03:08:11;;;;;;;1999.90;999.90;;;;;;;;;;4981678;28;20771;-76
2023/08/06 03:10:56;;;;;;;1999.90;999.90;;;;;;;;;;4989807;28;20211;-76
2023/08/06 03:13:41;;;;;;;1999.90;999.90;;;;;;;;;;4990718;28;20735;-74
2023/08/06 03:16:25;;;;;;;1999.90;999.90;;;;;;;;;;4987202;28;20392;-72
2023/08/06 03:19:10;;;;;;;1999.90;999.90;;;;;;;;;;4995321;28;20255;-75
2023/08/06 03:21:55;;;;;;;1999.90;999.90;;;;;;;;;;4991345;28;20747;-76
2023/08/06 03:24:42;;;;;;;1999.90;999.90;;;;;;;;;;4993432;28;20218;-75
2023/08/06 03:27:26;;;;;;;1999.90;999.90;;;;;;;;;;4993451;28;20218;-76
2023/08/06 03:30:11;;;;;;;1999.90;999.90;;;;;;;;;;4993630;28;20253;-76
2023/08/06 03:32:56;;;;;;;1999.90;999.90;;;;;;;;;;4993371;28;20227;-76
2023/08/06 03:35:41;;;;;;;1999.90;999.90;;;;;;;;;;4993502;28;20203;-76
2023/08/06 03:38:26;;;;;;;1999.90;999.90;;;;;;;;;;4993385;28;20327;-76
2023/08/06 03:41:12;;;;;;;1999.90;999.90;;;;;;;;;;4992727;28;20699;-76
2023/08/06 03:43:57;;;;;;;1999.90;999.90;;;;;;;;;;4993122;28;20226;-75
2023/08/06 03:46:42;;;;;;;1999.90;999.90;;;;;;;;;;4993181;28;20286;-76
2023/08/06 03:49:27;;;;;;;1999.90;999.90;;;;;;;;;;4992931;28;20375;-77
2023/08/06 03:52:12;;;;;;;1999.90;999.90;;;;;;;;;;4992624;28;20231;-76
2023/08/06 03:54:56;;;;;;;1999.90;999.90;;;;;;;;;;4992599;28;20914;-76
2023/08/06 03:57:43;;;;;;;1999.90;999.90;;;;;;;;;;4993165;28;20399;-76
2023/08/06 04:00:28;;;;;;;1999.90;999.90;;;;;;;;;;4992901;28;20224;-76
2023/08/06 04:03:12;;;;;;;1999.90;999.90;;;;;;;;;;4992673;28;20722;-76
2023/08/06 04:05:57;;;;;;;1999.90;999.90;;;;;;;;;;4992860;28;20231;-77
2023/08/06 04:08:42;;;;;;;1999.90;999.90;;;;;;;;;;4992653;28;20601;-76
2023/08/06 04:11:27;;;;;;;1999.90;999.90;;;;;;;;;;4992532;28;20207;-76
2023/08/06 04:14:13;;;;;;;1999.90;999.90;;;;;;;;;;4992300;28;20407;-76
2023/08/06 04:16:58;;;;;;;1999.90;999.90;;;;;;;;;;4992721;28;20215;-76
2023/08/06 04:19:43;;;;;;;1999.90;999.90;;;;;;;;;;4992667;28;20589;-76
2023/08/06 04:22:28;;;;;;;1999.90;999.90;;;;;;;;;;4992137;28;20227;-76
2023/08/06 04:25:12;;;;;;;1999.90;999.90;;;;;;;;;;4992325;28;20302;-76
2023/08/06 04:27:57;;;;;;;1999.90;999.90;;;;;;;;;;4992584;28;20211;-76
2023/08/06 04:30:44;;;;;;;1999.90;999.90;;;;;;;;;;4992528;28;20218;-77
2023/08/06 04:33:29;;;;;;;1999.90;999.90;;;;;;;;;;4988890;28;20230;-76
2023/08/06 04:36:14;;;;;;;1999.90;999.90;;;;;;;;;;4985569;28;20743;-77
2023/08/06 04:38:58;;;;;;;1999.90;999.90;;;;;;;;;;4998151;28;20211;-76
2023/08/06 04:41:44;;;;;;;1999.90;999.90;;;;;;;;;;4990761;28;20235;-77
2023/08/06 04:44:29;;;;;;;1999.90;999.90;;;;;;;;;;4996311;28;20579;-76
2023/08/06 04:47:15;;;;;;;1999.90;999.90;;;;;;;;;;4985758;28;20223;-73
2023/08/06 04:50:01;;;;;;;1999.90;999.90;;;;;;;;;;4985063;28;20727;-76
2023/08/06 04:52:45;;;;;;;1999.90;999.90;;;;;;;;;;4984727;28;20315;-76
2023/08/06 04:55:30;;;;;;;1999.90;999.90;;;;;;;;;;4993342;28;20648;-73
2023/08/06 04:58:16;;;;;;;1999.90;999.90;;;;;;;;;;4988686;28;20282;-72
2023/08/06 05:01:01;;;;;;;1999.90;999.90;;;;;;;;;;4991933;28;20325;-74
2023/08/06 05:03:48;;;;;;;1999.90;999.90;;;;;;;;;;4981883;28;20211;-73
2023/08/06 05:06:32;;;;;;;1999.90;999.90;;;;;;;;;;4994173;28;20211;-75
2023/08/06 05:09:17;;;;;;;1999.90;999.90;;;;;;;;;;4993886;28;20738;-76
2023/08/06 05:12:03;;;;;;;1999.90;999.90;;;;;;;;;;4994375;28;20623;-76
2023/08/06 05:14:48;;;;;;;1999.90;999.90;;;;;;;;;;4982988;28;20768;-77
2023/08/06 05:17:33;;;;;;;1999.90;999.90;;;;;;;;;;4983812;28;20215;-75
2023/08/06 05:20:20;;;;;;;1999.90;999.90;;;;;;;;;;4988586;28;20808;-75
2023/08/06 05:23:05;;;;;;;1999.90;999.90;;;;;;;;;;4983820;28;20244;-77
2023/08/06 05:25:50;;;;;;;1999.90;999.90;;;;;;;;;;4981033;28;20275;-76
2023/08/06 05:28:35;;;;;;;1999.90;999.90;;;;;;;;;;4987935;28;20894;-76
2023/08/06 05:31:20;;;;;;;1999.90;999.90;;;;;;;;;;4985854;28;20379;-76
2023/08/06 05:34:05;;;;;;;1999.90;999.90;;;;;;;;;;4987747;28;20687;-76
2023/08/06 05:36:52;;;;;;;1999.90;999.90;;;;;;;;;;4985360;28;20216;-75
2023/08/06 05:39:37;;;;;;;1999.90;999.90;;;;;;;;;;4985907;28;20705;-75
2023/08/06 05:42:22;;;;;;;1999.90;999.90;;;;;;;;;;4985970;28;20306;-76
2023/08/06 05:45:07;;;;;;;1999.90;999.90;;;;;;;;;;4992009;28;20223;-73
2023/08/06 05:47:53;;;;;;;1999.90;999.90;;;;;;;;;;4998216;28;20254;-76
2023/08/06 05:50:39;;;;;;;1999.90;999.90;;;;;;;;;;4986542;28;20584;-75
2023/08/06 05:53:25;;;;;;;1999.90;999.90;;;;;;;;;;4989843;28;20445;-76
2023/08/06 05:56:10;;;;;;;1999.90;999.90;;;;;;;;;;4987649;28;20586;-77
2023/08/06 05:58:55;;;;;;;1999.90;999.90;;;;;;;;;;4982187;28;20227;-76
2023/08/06 06:01:39;;;;;;;1999.90;999.90;;;;;;;;;;4984883;28;20228;-76
2023/08/06 06:04:25;;;;;;;1999.90;999.90;;;;;;;;;;4999739;28;20207;-77
2023/08/06 06:07:10;;;;;;;1999.90;999.90;;;;;;;;;;4981902;28;20210;-78
2023/08/06 06:09:56;;;;;;;1999.90;999.90;;;;;;;;;;4989004;28;20235;-77
2023/08/06 06:12:41;;;;;;;1999.90;999.90;;;;;;;;;;5006000;28;20723;-76
2023/08/06 06:15:26;;;;;;;1999.90;999.90;;;;;;;;;;5014558;28;20224;-76
2023/08/06 06:18:11;;;;;;;1999.90;999.90;;;;;;;;;;5014386;28;20202;-77
2023/08/06 06:20:56;;;;;;;1999.90;999.90;;;;;;;;;;5014308;28;20345;-77
2023/08/06 06:23:41;;;;;;;1999.90;999.90;;;;;;;;;;4991138;28;20350;-78
2023/08/06 06:26:28;;;;;;;1999.90;999.90;;;;;;;;;;4984448;28;20323;-76
2023/08/06 06:29:13;;;;;;;1999.90;999.90;;;;;;;;;;4982429;28;20746;-76
2023/08/06 06:31:57;;;;;;;1999.90;999.90;;;;;;;;;;4986798;28;20239;-77
2023/08/06 06:34:43;;;;;;;1999.90;999.90;;;;;;;;;;4994410;28;20239;-76
2023/08/06 06:37:28;;;;;;;1999.90;999.90;;;;;;;;;;4999548;28;20210;-76
2023/08/06 06:40:13;;;;;;;1999.90;999.90;;;;;;;;;;5005474;28;20584;-76
2023/08/06 06:42:59;;;;;;;1999.90;999.90;;;;;;;;;;5013745;28;20309;-75
2023/08/06 06:45:44;;;;;;;1999.90;999.90;;;;;;;;;;5013637;28;20628;-77
2023/08/06 06:48:29;;;;;;;1999.90;999.90;;;;;;;;;;5013822;28;20686;-76
2023/08/06 06:51:14;;;;;;;1999.90;999.90;;;;;;;;;;4998792;28;20686;-77
2023/08/06 06:53:59;;;;;;;1999.90;999.90;;;;;;;;;;4982128;28;20828;-75
2023/08/06 06:56:44;;;;;;;1999.90;999.90;;;;;;;;;;4979914;28;20426;-78
2023/08/06 06:59:30;;;;;;;1999.90;999.90;;;;;;;;;;4983908;28;20266;-76
2023/08/06 07:02:15;;;;;;;1999.90;999.90;;;;;;;;;;4986240;28;20750;-74
2023/08/06 07:05:00;;;;;;;1999.90;999.90;;;;;;;;;;4992338;28;20207;-75
2023/08/06 07:07:45;;;;;;;1999.90;999.90;;;;;;;;;;4993431;28;20586;-77
2023/08/06 07:10:30;;;;;;;1999.90;999.90;;;;;;;;;;4987231;28;20227;-77
2023/08/06 07:13:16;;;;;;;1999.90;999.90;;;;;;;;;;5000277;28;20415;-76
2023/08/06 07:16:02;;;;;;;1999.90;999.90;;;;;;;;;;4991758;28;20237;-77
2023/08/06 07:18:47;;;;;;;1999.90;999.90;;;;;;;;;;4995341;28;20222;-75
2023/08/06 07:21:32;;;;;;;1999.90;999.90;;;;;;;;;;4982715;28;20361;-75
2023/08/06 07:24:17;;;;;;;1999.90;999.90;;;;;;;;;;4988553;28;20207;-77
2023/08/06 07:27:02;;;;;;;1999.90;999.90;;;;;;;;;;4986859;28;20573;-76
2023/08/06 07:29:48;;;;;;;1999.90;999.90;;;;;;;;;;4992711;28;20434;-77
2023/08/06 07:32:35;;;;;;;1999.90;999.90;;;;;;;;;;4985826;28;20331;-78
2023/08/06 07:35:20;;;;;;;1999.90;999.90;;;;;;;;;;4977740;28;20215;-76
2023/08/06 07:38:04;;;;;;;1999.90;999.90;;;;;;;;;;4985318;28;20227;-77
2023/08/06 07:40:49;;;;;;;1999.90;999.90;;;;;;;;;;4992606;28;20258;-76
2023/08/06 07:43:35;;;;;;;1999.90;999.90;;;;;;;;;;4992203;28;20226;-78
2023/08/06 07:46:20;;;;;;;1999.90;999.90;;;;;;;;;;4996494;28;20327;-75
2023/08/06 07:49:06;;;;;;;1999.90;999.90;;;;;;;;;;4996013;28;20219;-76
2023/08/06 07:51:52;;;;;;;1999.90;999.90;;;;;;;;;;4998942;28;20231;-76
2023/08/06 07:54:37;;;;;;;1999.90;999.90;;;;;;;;;;4999705;28;20218;-77
2023/08/06 07:57:22;;;;;;;1999.90;999.90;;;;;;;;;;4995277;28;20702;-77
2023/08/06 08:00:09;;;;;;;1999.90;999.90;;;;;;;;;;4994747;28;20208;-72
2023/08/06 08:02:54;;;;;;;1999.90;999.90;;;;;;;;;;4992349;28;20641;-74
2023/08/06 08:05:40;;;;;;;1999.90;999.90;;;;;;;;;;4996677;28;20771;-73
2023/08/06 08:08:26;;;;;;;1999.90;999.90;;;;;;;;;;4993147;28;20219;-73
2023/08/06 08:11:10;;;;;;;1999.90;999.90;;;;;;;;;;4989524;28;20823;-73
2023/08/06 08:13:55;;;;;;;1999.90;999.90;;;;;;;;;;4995477;28;20203;-73
2023/08/06 08:16:40;;;;;;;1999.90;999.90;;;;;;;;;;4996356;28;20362;-73
2023/08/06 08:19:25;;;;;;;1999.90;999.90;;;;;;;;;;4988930;28;20207;-73
2023/08/06 08:22:11;;;;;;;1999.90;999.90;;;;;;;;;;4995041;28;20243;-73
2023/08/06 08:24:56;;;;;;;1999.90;999.90;;;;;;;;;;4992104;28;20212;-73
2023/08/06 08:27:41;;;;;;;1999.90;999.90;;;;;;;;;;4997078;28;20248;-74
2023/08/06 08:30:26;;;;;;;1999.90;999.90;;;;;;;;;;4996869;28;20230;-73
2023/08/06 08:33:11;;;;;;;1999.90;999.90;;;;;;;;;;4992758;28;20222;-74
2023/08/06 08:35:56;;;;;;;1999.90;999.90;;;;;;;;;;4991280;28;20219;-73
2023/08/06 08:38:43;;;;;;;1999.90;999.90;;;;;;;;;;4995825;28;20227;-72
2023/08/06 08:41:29;;;;;;;1999.90;999.90;;;;;;;;;;4991126;28;20210;-73
2023/08/06 08:44:16;;;;;;;1999.90;999.90;;;;;;;;;;4995052;28;20227;-72
2023/08/06 08:47:01;;;;;;;1999.90;999.90;;;;;;;;;;4994757;28;20211;-73
2023/08/06 08:49:48;;;;;;;1999.90;999.90;;;;;;;;;;5002121;28;20597;-73
2023/08/06 08:52:34;;;;;;;1999.90;999.90;;;;;;;;;;4996338;28;20255;-74
2023/08/06 08:55:21;;;;;;;1999.90;999.90;;;;;;;;;;5003245;28;20750;-73
2023/08/06 08:58:06;;;;;;;1999.90;999.90;;;;;;;;;;4990980;28;20415;-72
2023/08/06 09:00:51;;;;;;;1999.90;999.90;;;;;;;;;;4990071;28;20210;-73
2023/08/06 09:03:37;;;;;;;1999.90;999.90;;;;;;;;;;4997490;28;20378;-75
2023/08/06 09:06:22;;;;;;;1999.90;999.90;;;;;;;;;;4997925;28;20226;-73
2023/08/06 09:09:09;;;;;;;1999.90;999.90;;;;;;;;;;4989687;28;20327;-74
2023/08/06 09:11:56;;;;;;;1999.90;999.90;;;;;;;;;;4992338;28;20421;-73
2023/08/06 09:14:41;;;;;;;1999.90;999.90;;;;;;;;;;4997540;28;20715;-74
2023/08/06 09:17:28;;;;;;;1999.90;999.90;;;;;;;;;;4997916;28;20313;-74
2023/08/06 09:20:13;;;;;;;1999.90;999.90;;;;;;;;;;4995427;28;20583;-71
2023/08/06 09:22:59;;;;;;;1999.90;999.90;;;;;;;;;;4997603;28;20226;-73
2023/08/06 09:25:44;;;;;;;1999.90;999.90;;;;;;;;;;4991788;28;20269;-73
2023/08/06 09:28:39;;;;;;;1999.90;999.90;;;;;;;;;;4991131;28;20211;-73
2023/08/06 09:31:24;;;;;;;1999.90;999.90;;;;;;;;;;4994690;28;20239;-72
2023/08/06 09:34:13;;;;;;;1999.90;999.90;;;;;;;;;;4996360;28;20203;-74
2023/08/06 09:36:58;;;;;;;1999.90;999.90;;;;;;;;;;4990457;28;20215;-73
2023/08/06 09:39:43;;;;;;;1999.90;999.90;;;;;;;;;;5000289;28;20727;-71
2023/08/06 09:42:29;;;;;;;1999.90;999.90;;;;;;;;;;4994700;28;20313;-74
2023/08/06 09:45:15;;;;;;;1999.90;999.90;;;;;;;;;;4998089;28;20198;-73
2023/08/06 09:48:00;;;;;;;1999.90;999.90;;;;;;;;;;5000292;28;20610;-72
2023/08/06 09:50:47;;;;;;;1999.90;999.90;;;;;;;;;;4988244;28;20451;-73
2023/08/06 09:53:34;;;;;;;1999.90;999.90;;;;;;;;;;5000811;28;20317;-74
2023/08/06 09:56:19;;;;;;;1999.90;999.90;;;;;;;;;;4991090;28;20571;-73
2023/08/06 09:59:05;;;;;;;1999.90;999.90;;;;;;;;;;5001474;28;20203;-73
2023/08/06 10:01:52;;;;;;;1999.90;999.90;;;;;;;;;;4993111;28;20310;-73
2023/08/06 10:04:37;;;;;;;1999.90;999.90;;;;;;;;;;4994983;28;20784;-73
2023/08/06 10:07:24;;;;;;;1999.90;999.90;;;;;;;;;;4995142;28;20247;-72
2023/08/06 10:10:09;;;;;;;1999.90;999.90;;;;;;;;;;4994959;28;20715;-73
2023/08/06 10:12:56;;;;;;;1999.90;999.90;;;;;;;;;;4993601;28;20408;-73
2023/08/06 10:15:42;;;;;;;1999.90;999.90;;;;;;;;;;4994689;28;20211;-73
2023/08/06 10:18:28;;;;;;;1999.90;999.90;;;;;;;;;;4994958;28;20206;-72
2023/08/06 10:21:15;;;;;;;1999.90;999.90;;;;;;;;;;4994955;28;20203;-72
2023/08/06 10:24:01;;;;;;;1999.90;999.90;;;;;;;;;;4994726;28;20230;-73
2023/08/06 10:26:46;;;;;;;1999.90;999.90;;;;;;;;;;4995131;28;20270;-73
2023/08/06 10:29:36;;;;;;;1999.90;999.90;;;;;;;;;;4994745;28;20202;-73
2023/08/06 10:32:22;;;;;;;1999.90;999.90;;;;;;;;;;4994408;28;20219;-73
2023/08/06 10:35:29;;;;;;;1999.90;999.90;;;;;;;;;;4994836;28;20780;-73
2023/08/06 10:38:15;;;;;;;1999.90;999.90;;;;;;;;;;4994339;28;20206;-73
2023/08/06 10:41:02;;;;;;;1999.90;999.90;;;;;;;;;;4994622;28;20219;-73
2023/08/06 10:43:48;;;;;;;1999.90;999.90;;;;;;;;;;4994601;28;20606;-73
2023/08/06 10:46:33;;;;;;;1999.90;999.90;;;;;;;;;;4994488;28;20586;-72
2023/08/06 10:49:18;;;;;;;1999.90;999.90;;;;;;;;;;4994219;28;20211;-73
2023/08/06 10:52:05;;;;;;;1999.90;999.90;;;;;;;;;;4992246;28;20413;-73
2023/08/06 10:54:50;;;;;;;1999.90;999.90;;;;;;;;;;4994064;28;20271;-73
2023/08/06 10:57:35;;;;;;;1999.90;999.90;;;;;;;;;;4994371;28;20247;-73
2023/08/06 11:00:21;;;;;;;1999.90;999.90;;;;;;;;;;4994206;28;20243;-73
2023/08/06 11:03:06;;;;;;;1999.90;999.90;;;;;;;;;;4993887;28;20231;-73
2023/08/06 11:05:51;;;;;;;1999.90;999.90;;;;;;;;;;4994192;28;20298;-74
2023/08/06 11:08:38;;;;;;;1999.90;999.90;;;;;;;;;;4994154;28;20315;-73
2023/08/06 11:11:23;;;;;;;1999.90;999.90;;;;;;;;;;4992314;28;20453;-73
2023/08/06 11:14:15;;;;;;;1999.90;999.90;;;;;;;;;;4993952;28;20196;-72
2023/08/06 11:17:00;;;;;;;1999.90;999.90;;;;;;;;;;4993842;28;20211;-73
2023/08/06 11:19:45;;;;;;;1999.90;999.90;;;;;;;;;;4993754;28;20573;-72
2023/08/06 11:22:30;;;;;;;1999.90;999.90;;;;;;;;;;4993417;28;20227;-73
2023/08/06 11:25:16;;;;;;;1999.90;999.90;;;;;;;;;;4993757;28;20592;-73
2023/08/06 11:28:02;;;;;;;1999.90;999.90;;;;;;;;;;4993678;28;20212;-73
2023/08/06 11:30:46;;;;;;;1999.90;999.90;;;;;;;;;;4993388;28;20234;-73
2023/08/06 11:33:32;;;;;;;1999.90;999.90;;;;;;;;;;4993370;28;20269;-73
2023/08/06 11:36:17;;;;;;;1999.90;999.90;;;;;;;;;;4993393;28;20282;-73
2023/08/06 11:39:02;;;;;;;1999.90;999.90;;;;;;;;;;4993360;28;20669;-73
2023/08/06 11:41:49;;;;;;;1999.90;999.90;;;;;;;;;;4993165;28;20228;-72
2023/08/06 11:44:36;;;;;;;1999.90;999.90;;;;;;;;;;4993156;28;20204;-73
2023/08/06 11:47:21;;;;;;;1999.90;999.90;;;;;;;;;;4993305;28;20823;-73
2023/08/06 11:50:06;;;;;;;1999.90;999.90;;;;;;;;;;4993174;28;20316;-72
2023/08/06 11:52:54;;;;;;;1999.90;999.90;;;;;;;;;;4992790;28;20359;-73
2023/08/06 11:55:39;;;;;;;1999.90;999.90;;;;;;;;;;4993227;28;20224;-74
2023/08/06 11:58:26;;;;;;;1999.90;999.90;;;;;;;;;;4993169;28;20750;-73
2023/08/06 12:01:10;;;;;;;1999.90;999.90;;;;;;;;;;4993136;28;20331;-73
2023/08/06 12:03:59;;;;;;;1999.90;999.90;;;;;;;;;;4992271;28;20218;-73
2023/08/06 12:06:44;;;;;;;1999.90;999.90;;;;;;;;;;4993014;28;20211;-73
2023/08/06 12:09:29;;;;;;;1999.90;999.90;;;;;;;;;;4992072;28;20388;-73
2023/08/06 12:12:14;;;;;;;1999.90;999.90;;;;;;;;;;4992295;28;20270;-72
2023/08/06 12:15:00;;;;;;;1999.90;999.90;;;;;;;;;;4992944;28;20203;-73
2023/08/06 12:17:45;;;;;;;1999.90;999.90;;;;;;;;;;4992924;28;20211;-73
2023/08/06 12:20:30;;;;;;;1999.90;999.90;;;;;;;;;;4992431;28;20203;-73
2023/08/06 12:23:15;;;;;;;1999.90;999.90;;;;;;;;;;4992435;28;20218;-73
2023/08/06 12:26:00;;;;;;;1999.90;999.90;;;;;;;;;;4992723;28;20293;-73
2023/08/06 12:28:45;;;;;;;1999.90;999.90;;;;;;;;;;4992738;28;20215;-73
2023/08/06 12:31:31;;;;;;;1999.90;999.90;;;;;;;;;;4992413;28;20487;-73
2023/08/06 12:34:17;;;;;;;1999.90;999.90;;;;;;;;;;4992536;28;20231;-72
2023/08/06 12:37:02;;;;;;;1999.90;999.90;;;;;;;;;;4992432;28;20212;-73
2023/08/06 12:39:47;;;;;;;1999.90;999.90;;;;;;;;;;4992401;28;20207;-72
2023/08/06 12:42:32;;;;;;;1999.90;999.90;;;;;;;;;;4992231;28;20227;-73
2023/08/06 12:45:20;;;;;;;1999.90;999.90;;;;;;;;;;4992365;28;20263;-73
2023/08/06 12:48:07;;;;;;;1999.90;999.90;;;;;;;;;;4992797;28;20207;-73
2023/08/06 12:50:51;;;;;;;1999.90;999.90;;;;;;;;;;4990790;28;20859;-73
2023/08/06 12:53:36;;;;;;;1999.90;999.90;;;;;;;;;;4992073;28;20373;-73
2023/08/06 12:56:21;;;;;;;1999.90;999.90;;;;;;;;;;4992451;28;20254;-73
2023/08/06 12:59:06;;;;;;;1999.90;999.90;;;;;;;;;;4992458;28;20582;-72
2023/08/06 13:01:51;;;;;;;1999.90;999.90;;;;;;;;;;4991922;28;20682;-73
2023/08/06 13:04:37;;;;;;;1999.90;999.90;;;;;;;;;;4992374;28;20291;-73
2023/08/06 13:07:22;;;;;;;1999.90;999.90;;;;;;;;;;4992366;28;20211;-73
2023/08/06 13:10:07;;;;;;;1999.90;999.90;;;;;;;;;;4991070;28;20912;-72
2023/08/06 13:12:52;;;;;;;1999.90;999.90;;;;;;;;;;4992075;28;20590;-73
2023/08/06 13:15:37;;;;;;;1999.90;999.90;;;;;;;;;;4995912;28;20226;-72
2023/08/06 13:18:22;;;;;;;1999.90;999.90;;;;;;;;;;4996359;28;20210;-73
2023/08/06 13:21:08;;;;;;;1999.90;999.90;;;;;;;;;;4995635;28;20200;-73
2023/08/06 13:23:53;;;;;;;1999.90;999.90;;;;;;;;;;4996095;28;20270;-74
2023/08/06 13:26:38;;;;;;;1999.90;999.90;;;;;;;;;;4996026;28;20203;-73
2023/08/06 13:29:22;;;;;;;1999.90;999.90;;;;;;;;;;4995521;28;20714;-73
2023/08/06 13:32:07;;;;;;;1999.90;999.90;;;;;;;;;;4995269;28;20290;-73
2023/08/06 13:34:52;;;;;;;1999.90;999.90;;;;;;;;;;4995850;28;20199;-73
2023/08/06 13:37:39;;;;;;;1999.90;999.90;;;;;;;;;;4995726;28;20289;-73
2023/08/06 13:40:24;;;;;;;1999.90;999.90;;;;;;;;;;4995634;28;20290;-73
2023/08/06 13:43:09;;;;;;;1999.90;999.90;;;;;;;;;;4995402;28;20223;-73
2023/08/06 13:45:54;;;;;;;1999.90;999.90;;;;;;;;;;4995495;28;20334;-73
2023/08/06 13:48:38;;;;;;;1999.90;999.90;;;;;;;;;;4994966;28;20414;-74
2023/08/06 13:51:23;;;;;;;1999.90;999.90;;;;;;;;;;4995442;28;20343;-73
2023/08/06 13:54:10;;;;;;;1999.90;999.90;;;;;;;;;;4995488;28;20307;-73
2023/08/06 13:56:55;;;;;;;1999.90;999.90;;;;;;;;;;4995463;28;20207;-73
2023/08/06 13:59:40;;;;;;;1999.90;999.90;;;;;;;;;;4995385;28;20250;-73
2023/08/06 14:02:25;;;;;;;1999.90;999.90;;;;;;;;;;4995354;28;20219;-73
2023/08/06 14:05:10;;;;;;;1999.90;999.90;;;;;;;;;;4995255;28;20299;-74
2023/08/06 14:07:55;;;;;;;1999.90;999.90;;;;;;;;;;4994620;28;20496;-73
2023/08/06 14:10:41;;;;;;;1999.90;999.90;;;;;;;;;;4995042;28;20685;-72
2023/08/06 14:13:27;;;;;;;1999.90;999.90;;;;;;;;;;4994862;28;20239;-73
2023/08/06 14:16:11;;;;;;;1999.90;999.90;;;;;;;;;;4995066;28;20214;-74
2023/08/06 14:18:56;;;;;;;1999.90;999.90;;;;;;;;;;4994998;28;20211;-74
2023/08/06 14:21:41;;;;;;;1999.90;999.90;;;;;;;;;;4994653;28;20219;-73
2023/08/06 14:24:26;;;;;;;1999.90;999.90;;;;;;;;;;4994888;28;20210;-74
2023/08/06 14:27:13;;;;;;;1999.90;999.90;;;;;;;;;;4994292;28;20219;-73
2023/08/06 14:29:57;;;;;;;1999.90;999.90;;;;;;;;;;4994828;28;20196;-71
2023/08/06 14:32:42;;;;;;;1999.90;999.90;;;;;;;;;;4994158;28;20278;-73
2023/08/06 14:35:27;;;;;;;1999.90;999.90;;;;;;;;;;4994608;28;20219;-73
2023/08/06 14:38:12;;;;;;;1999.90;999.90;;;;;;;;;;4994421;28;20280;-73
2023/08/06 14:40:58;;;;;;;1999.90;999.90;;;;;;;;;;4994577;28;20202;-73
2023/08/06 14:43:44;;;;;;;1999.90;999.90;;;;;;;;;;4994313;28;20227;-72
2023/08/06 14:46:29;;;;;;;1999.90;999.90;;;;;;;;;;4994435;28;20207;-73
2023/08/06 14:49:14;;;;;;;1999.90;999.90;;;;;;;;;;4993381;28;20453;-73
2023/08/06 14:52:01;;;;;;;1999.90;999.90;;;;;;;;;;4994112;28;20767;-72
2023/08/06 14:54:46;;;;;;;1999.90;999.90;;;;;;;;;;4995641;28;20195;-73
2023/08/06 14:57:31;;;;;;;1999.90;999.90;;;;;;;;;;4994346;28;20219;-73
2023/08/06 15:00:18;;;;;;;1999.90;999.90;;;;;;;;;;4994276;28;20207;-73
2023/08/06 15:03:02;;;;;;;1999.90;999.90;;;;;;;;;;4993751;28;20735;-73
2023/08/06 15:05:48;;;;;;;1999.90;999.90;;;;;;;;;;4994084;28;20251;-75
2023/08/06 15:08:33;;;;;;;1999.90;999.90;;;;;;;;;;4992927;28;20915;-73
2023/08/06 15:11:18;;;;;;;1999.90;999.90;;;;;;;;;;4993797;28;20359;-73
2023/08/06 15:14:05;;;;;;;1999.90;999.90;;;;;;;;;;4993908;28;20262;-73
2023/08/06 15:16:51;;;;;;;1999.90;999.90;;;;;;;;;;4993874;28;20211;-73
2023/08/06 15:19:36;;;;;;;1999.90;999.90;;;;;;;;;;4993771;28;20788;-72
2023/08/06 15:22:21;;;;;;;1999.90;999.90;;;;;;;;;;4993611;28;20226;-73
2023/08/06 15:25:06;;;;;;;1999.90;999.90;;;;;;;;;;4993544;28;20203;-73
2023/08/06 15:27:51;;;;;;;1999.90;999.90;;;;;;;;;;4993470;28;20215;-72
2023/08/06 15:30:36;;;;;;;1999.90;999.90;;;;;;;;;;4993711;28;20517;-73
2023/08/06 15:33:22;;;;;;;1999.90;999.90;;;;;;;;;;4993204;28;20222;-73
2023/08/06 15:36:07;;;;;;;1999.90;999.90;;;;;;;;;;4993731;28;20223;-71
2023/08/06 15:38:52;;;;;;;1999.90;999.90;;;;;;;;;;4992586;28;20250;-72
2023/08/06 15:41:37;;;;;;;1999.90;999.90;;;;;;;;;;4993247;28;20203;-73
2023/08/06 15:44:22;;;;;;;1999.90;999.90;;;;;;;;;;4993456;28;20226;-73
2023/08/06 15:47:07;;;;;;;1999.90;999.90;;;;;;;;;;4993036;28;20422;-72
2023/08/06 15:49:53;;;;;;;1999.90;999.90;;;;;;;;;;4995480;28;20284;-72
2023/08/06 15:52:38;;;;;;;1999.90;999.90;;;;;;;;;;4995730;28;20643;-72
2023/08/06 15:55:24;;;;;;;1999.90;999.90;;;;;;;;;;4995328;28;20207;-73
2023/08/06 15:58:09;;;;;;;1999.90;999.90;;;;;;;;;;4996713;28;20222;-72
2023/08/06 16:00:54;;;;;;;1999.90;999.90;;;;;;;;;;4993031;28;20203;-73
2023/08/06 16:03:41;;;;;;;1999.90;999.90;;;;;;;;;;4992900;28;20761;-72
2023/08/06 16:06:27;;;;;;;1999.90;999.90;;;;;;;;;;4992408;28;20409;-72
2023/08/06 16:09:12;;;;;;;1999.90;999.90;;;;;;;;;;4992943;28;20219;-72
2023/08/06 16:11:57;;;;;;;1999.90;999.90;;;;;;;;;;4992406;28;20774;-72
2023/08/06 16:14:42;;;;;;;1999.90;999.90;;;;;;;;;;4992874;28;20208;-72
2023/08/06 16:17:27;;;;;;;1999.90;999.90;;;;;;;;;;4992588;28;20692;-73
2023/08/06 16:20:13;;;;;;;1999.90;999.90;;;;;;;;;;4992647;28;20207;-72
2023/08/06 16:23:00;;;;;;;1999.90;999.90;;;;;;;;;;4992509;28;20235;-73
2023/08/06 16:25:47;;;;;;;1999.90;999.90;;;;;;;;;;4992716;28;20215;-72
2023/08/06 16:28:32;;;;;;;1999.90;999.90;;;;;;;;;;4992847;28;20222;-73
2023/08/06 16:31:17;;;;;;;1999.90;999.90;;;;;;;;;;4992568;28;20207;-73
2023/08/06 16:34:02;;;;;;;1999.90;999.90;;;;;;;;;;4992514;28;20199;-73
2023/08/06 16:36:47;;;;;;;1999.90;999.90;;;;;;;;;;4992553;28;20218;-72
2023/08/06 16:39:33;;;;;;;1999.90;999.90;;;;;;;;;;4992545;28;20630;-72
2023/08/06 16:42:18;;;;;;;1999.90;999.90;;;;;;;;;;4992358;28;20223;-73
2023/08/06 16:45:03;;;;;;;1999.90;999.90;;;;;;;;;;4992550;28;20277;-72
2023/08/06 16:47:49;;;;;;;1999.90;999.90;;;;;;;;;;4991370;28;20417;-73
2023/08/06 16:50:34;;;;;;;1999.90;999.90;;;;;;;;;;4996168;28;20282;-72
2023/08/06 16:53:18;;;;;;;1999.90;999.90;;;;;;;;;;4995856;28;20234;-72
2023/08/06 16:56:05;;;;;;;1999.90;999.90;;;;;;;;;;4996417;28;20208;-72
2023/08/06 16:58:50;;;;;;;1999.90;999.90;;;;;;;;;;4996388;28;20226;-73
2023/08/06 17:01:36;;;;;;;1999.90;999.90;;;;;;;;;;4996226;28;20216;-73
2023/08/06 17:04:21;;;;;;;1999.90;999.90;;;;;;;;;;4996364;28;20206;-72
2023/08/06 17:07:06;;;;;;;1999.90;999.90;;;;;;;;;;4995194;28;20432;-73
2023/08/06 17:09:51;;;;;;;1999.90;999.90;;;;;;;;;;4996256;28;20273;-73
2023/08/06 17:12:37;;;;;;;1999.90;999.90;;;;;;;;;;4995668;28;20329;-73
2023/08/06 17:15:22;;;;;;;1999.90;999.90;;;;;;;;;;4996305;28;20227;-73
2023/08/06 17:18:09;;;;;;;1999.90;999.90;;;;;;;;;;4996155;28;20678;-73
2023/08/06 17:20:54;;;;;;;1999.90;999.90;;;;;;;;;;4996187;28;20601;-73
2023/08/06 17:23:39;;;;;;;1999.90;999.90;;;;;;;;;;4995600;28;20239;-73
2023/08/06 17:26:24;;;;;;;1999.90;999.90;;;;;;;;;;4995780;28;20680;-73
2023/08/06 17:29:10;;;;;;;1999.90;999.90;;;;;;;;;;4995849;28;20218;-72
2023/08/06 17:31:55;;;;;;;1999.90;999.90;;;;;;;;;;4995385;28;20305;-72
2023/08/06 17:34:40;;;;;;;1999.90;999.90;;;;;;;;;;4995783;28;20219;-73
2023/08/06 17:37:25;;;;;;;1999.90;999.90;;;;;;;;;;4995704;28;20208;-71
2023/08/06 17:40:10;;;;;;;1999.90;999.90;;;;;;;;;;4995809;28;20565;-72
2023/08/06 17:42:55;;;;;;;1999.90;999.90;;;;;;;;;;4995445;28;20227;-72
2023/08/06 17:45:41;;;;;;;1999.90;999.90;;;;;;;;;;4995331;28;20933;-73
2023/08/06 17:48:26;;;;;;;1999.90;999.90;;;;;;;;;;4996047;28;20207;-72
2023/08/06 17:51:11;;;;;;;1999.90;999.90;;;;;;;;;;4995301;28;20210;-73
2023/08/06 17:53:56;;;;;;;1999.90;999.90;;;;;;;;;;4994949;28;20226;-72
2023/08/06 17:56:41;;;;;;;1999.90;999.90;;;;;;;;;;4995584;28;20208;-73
2023/08/06 17:59:25;;;;;;;1999.90;999.90;;;;;;;;;;4995136;28;20276;-72
2023/08/06 18:02:12;;;;;;;1999.90;999.90;;;;;;;;;;4994331;28;20239;-72
2023/08/06 18:04:56;;;;;;;1999.90;999.90;;;;;;;;;;4994960;28;20479;-73
2023/08/06 18:07:43;;;;;;;1999.90;999.90;;;;;;;;;;4995327;28;20409;-73
2023/08/06 18:10:28;;;;;;;1999.90;999.90;;;;;;;;;;4995114;28;20573;-72
2023/08/06 18:13:13;;;;;;;1999.90;999.90;;;;;;;;;;4994642;28;20234;-72